Adams Field
KLIT : now visible

Airfield :











YOU CAN JOIN US ON...

 
LOGIN :

Register | Disclaimer

   EN    FR    IT 

 









Legend :    VFR   Marginal VFR   IFR   Intensive IFR   Very Intensive IFR
Visi :
Ceiling :
>= 8 km
>= 3000ft
5 to 8 km
1000 to 3000 ft
1500m to 5 km
500 to 1000 ft
800 to 1500m
200 to 500 ft
< 800m
< 200 ft
Symbols :   Thunderstorms  Fog  Heavy snow  Heavy precipitations  Wind > 20 kt






- Airport Elevation : 262 ft
- IATA code : LIT


KLIT - Adams Field

CURRENT METAR :
  • 080724Z 16004KT 1/8SM FG VV002 04/04 A3020 RMK AO2 T00390039 RVRNO

EXPIRED METARs :
  • 080658Z 17004KT 1/4SM FG VV002 04/04 A3020 RMK AO2 T00390039 RVRNO
  • 080653Z 18006KT 1/2SM FG VV002 04/04 A3020 RMK AO2 SLP230 T00390039 RVRNO
  • 080620Z 14005KT 3/4SM BR VV002 04/04 A3021 RMK AO2 T00440039 RVRNO
  • 080553Z 14007KT 1SM BR VV002 04/04 A3022 RMK AO2 SLP238 T00440039 10044 20033 401060011 58009 RVRNO
  • 080453Z 11006KT 1SM BR VV002 04/04 A3024 RMK AO2 SLP242 T00440039 RVRNO

TAF KLIT
Valid from the 08 at 07:00 until the 09 at 06:00 UTC


080712Z 0807/0906 VRB05KT 1/2SM FG BKN003 OVC015
TEMPO 0807/0811 1/4SM FG VV002
FM081500 17006KT 4SM BR OVC015
FM082100 16008KT P6SM OVC100
FM090300 17009KT P6SM SCT015 OVC040



MET'MAP, your aeronautical weather chart ! - Copyright ORBIFLY December 2007 - Disclaimer

ORBIFLY MET'MAP TEAM :

Programming & Development : Alexandra Zaïnal
Concept & original design : Baudouin d'Aumeries
Assistance for programming : Marc-Olivier Méhu
Technical & hardware support : Manuel Goepfert

Contact : metmap@orbifly.com




SOURCES & CREDITS :

   NOAA       Earth
Advisory